sensor_id;sensor_type;location;lat;lon;timestamp;P1;durP1;ratioP1;P2;durP2;ratioP2
10641;SDS011;5369;49.586;8.646;2023-12-22T00:00:03;2.07;;;0.67;;
10641;SDS011;5369;49.586;8.646;2023-12-22T00:02:30;1.17;;;0.70;;
10641;SDS011;5369;49.586;8.646;2023-12-22T00:04:56;0.77;;;0.60;;
10641;SDS011;5369;49.586;8.646;2023-12-22T00:07:22;0.80;;;0.50;;
10641;SDS011;5369;49.586;8.646;2023-12-22T00:09:48;1.87;;;1.10;;
10641;SDS011;5369;49.586;8.646;2023-12-22T00:12:15;0.80;;;0.50;;
10641;SDS011;5369;49.586;8.646;2023-12-22T00:14:41;0.47;;;0.40;;
10641;SDS011;5369;49.586;8.646;2023-12-22T00:17:07;0.63;;;0.47;;
10641;SDS011;5369;49.586;8.646;2023-12-22T00:19:33;3.43;;;0.60;;
10641;SDS011;5369;49.586;8.646;2023-12-22T00:21:59;0.40;;;0.40;;
10641;SDS011;5369;49.586;8.646;2023-12-22T00:24:25;0.70;;;0.50;;
10641;SDS011;5369;49.586;8.646;2023-12-22T00:26:52;1.10;;;0.60;;
10641;SDS011;5369;49.586;8.646;2023-12-22T00:29:18;0.60;;;0.50;;
10641;SDS011;5369;49.586;8.646;2023-12-22T00:31:44;0.50;;;0.40;;
10641;SDS011;5369;49.586;8.646;2023-12-22T00:34:11;0.90;;;0.53;;
10641;SDS011;5369;49.586;8.646;2023-12-22T00:36:37;0.50;;;0.50;;
10641;SDS011;5369;49.586;8.646;2023-12-22T00:39:03;0.50;;;0.50;;
10641;SDS011;5369;49.586;8.646;2023-12-22T00:41:29;0.50;;;0.50;;
10641;SDS011;5369;49.586;8.646;2023-12-22T00:43:55;0.67;;;0.50;;
10641;SDS011;5369;49.586;8.646;2023-12-22T00:46:21;1.50;;;0.57;;
10641;SDS011;5369;49.586;8.646;2023-12-22T00:48:47;2.37;;;1.47;;
10641;SDS011;5369;49.586;8.646;2023-12-22T00:51:14;3.73;;;1.43;;
10641;SDS011;5369;49.586;8.646;2023-12-22T00:53:41;2.20;;;1.20;;
10641;SDS011;5369;49.586;8.646;2023-12-22T00:56:07;1.50;;;1.10;;
10641;SDS011;5369;49.586;8.646;2023-12-22T00:58:33;1.57;;;1.00;;
10641;SDS011;5369;49.586;8.646;2023-12-22T01:01:00;1.17;;;0.70;;
10641;SDS011;5369;49.586;8.646;2023-12-22T01:03:26;2.10;;;1.50;;
10641;SDS011;5369;49.586;8.646;2023-12-22T01:05:52;3.73;;;2.00;;
10641;SDS011;5369;49.586;8.646;2023-12-22T01:08:18;3.10;;;1.37;;
10641;SDS011;5369;49.586;8.646;2023-12-22T01:10:46;1.23;;;0.90;;
10641;SDS011;5369;49.586;8.646;2023-12-22T01:13:12;1.53;;;0.70;;
10641;SDS011;5369;49.586;8.646;2023-12-22T01:15:38;2.50;;;1.37;;
10641;SDS011;5369;49.586;8.646;2023-12-22T01:18:04;0.60;;;0.60;;
10641;SDS011;5369;49.586;8.646;2023-12-22T01:20:30;1.10;;;0.90;;
10641;SDS011;5369;49.586;8.646;2023-12-22T01:22:56;1.20;;;0.60;;
10641;SDS011;5369;49.586;8.646;2023-12-22T01:25:22;2.43;;;1.23;;
10641;SDS011;5369;49.586;8.646;2023-12-22T01:27:48;1.30;;;0.83;;
10641;SDS011;5369;49.586;8.646;2023-12-22T01:30:17;1.93;;;1.20;;
10641;SDS011;5369;49.586;8.646;2023-12-22T01:32:44;1.67;;;0.90;;
10641;SDS011;5369;49.586;8.646;2023-12-22T01:35:10;3.00;;;1.37;;
10641;SDS011;5369;49.586;8.646;2023-12-22T01:37:37;3.40;;;1.63;;
10641;SDS011;5369;49.586;8.646;2023-12-22T01:40:03;1.30;;;0.80;;
10641;SDS011;5369;49.586;8.646;2023-12-22T01:42:30;1.03;;;0.50;;
10641;SDS011;5369;49.586;8.646;2023-12-22T01:44:56;6.33;;;0.77;;
10641;SDS011;5369;49.586;8.646;2023-12-22T01:47:23;2.03;;;0.80;;
10641;SDS011;5369;49.586;8.646;2023-12-22T01:49:50;0.80;;;0.70;;
10641;SDS011;5369;49.586;8.646;2023-12-22T01:52:16;1.40;;;0.80;;
10641;SDS011;5369;49.586;8.646;2023-12-22T01:54:42;1.80;;;1.20;;
10641;SDS011;5369;49.586;8.646;2023-12-22T01:57:08;1.17;;;0.90;;
10641;SDS011;5369;49.586;8.646;2023-12-22T01:59:35;17.10;;;10.43;;
10641;SDS011;5369;49.586;8.646;2023-12-22T02:02:02;6.93;;;5.00;;
10641;SDS011;5369;49.586;8.646;2023-12-22T02:04:28;5.47;;;3.77;;
10641;SDS011;5369;49.586;8.646;2023-12-22T02:06:57;3.17;;;2.40;;
10641;SDS011;5369;49.586;8.646;2023-12-22T02:09:23;2.50;;;2.30;;
10641;SDS011;5369;49.586;8.646;2023-12-22T02:11:49;2.83;;;2.50;;
10641;SDS011;5369;49.586;8.646;2023-12-22T02:14:16;2.37;;;1.90;;
10641;SDS011;5369;49.586;8.646;2023-12-22T02:16:46;3.17;;;2.93;;
10641;SDS011;5369;49.586;8.646;2023-12-22T02:19:23;2.70;;;2.50;;
10641;SDS011;5369;49.586;8.646;2023-12-22T02:22:03;2.37;;;2.17;;
10641;SDS011;5369;49.586;8.646;2023-12-22T02:24:29;4.20;;;3.07;;
10641;SDS011;5369;49.586;8.646;2023-12-22T02:26:56;2.70;;;2.20;;
10641;SDS011;5369;49.586;8.646;2023-12-22T02:29:26;3.17;;;1.20;;
10641;SDS011;5369;49.586;8.646;2023-12-22T02:31:53;3.83;;;1.10;;
10641;SDS011;5369;49.586;8.646;2023-12-22T02:34:19;1.50;;;1.00;;
10641;SDS011;5369;49.586;8.646;2023-12-22T02:36:45;1.63;;;1.00;;
10641;SDS011;5369;49.586;8.646;2023-12-22T02:39:12;1.77;;;1.20;;
10641;SDS011;5369;49.586;8.646;2023-12-22T02:41:40;2.90;;;1.87;;
10641;SDS011;5369;49.586;8.646;2023-12-22T02:44:06;3.47;;;1.80;;
10641;SDS011;5369;49.586;8.646;2023-12-22T02:46:33;3.30;;;1.63;;
10641;SDS011;5369;49.586;8.646;2023-12-22T02:48:59;2.47;;;1.60;;
10641;SDS011;5369;49.586;8.646;2023-12-22T02:51:26;3.07;;;1.87;;
10641;SDS011;5369;49.586;8.646;2023-12-22T02:53:52;2.10;;;1.70;;
10641;SDS011;5369;49.586;8.646;2023-12-22T02:56:18;3.20;;;1.90;;
10641;SDS011;5369;49.586;8.646;2023-12-22T02:58:44;3.77;;;2.07;;
10641;SDS011;5369;49.586;8.646;2023-12-22T03:01:11;3.07;;;1.50;;
10641;SDS011;5369;49.586;8.646;2023-12-22T03:03:37;3.87;;;2.10;;
10641;SDS011;5369;49.586;8.646;2023-12-22T03:06:03;3.33;;;2.07;;
10641;SDS011;5369;49.586;8.646;2023-12-22T03:08:29;2.17;;;1.80;;
10641;SDS011;5369;49.586;8.646;2023-12-22T03:10:55;4.27;;;2.07;;
10641;SDS011;5369;49.586;8.646;2023-12-22T03:13:21;2.90;;;2.40;;
10641;SDS011;5369;49.586;8.646;2023-12-22T03:15:47;3.23;;;2.03;;
10641;SDS011;5369;49.586;8.646;2023-12-22T03:18:14;4.20;;;2.10;;
10641;SDS011;5369;49.586;8.646;2023-12-22T03:20:40;3.27;;;2.33;;
10641;SDS011;5369;49.586;8.646;2023-12-22T03:23:06;4.27;;;3.33;;
10641;SDS011;5369;49.586;8.646;2023-12-22T03:25:32;5.20;;;3.30;;
10641;SDS011;5369;49.586;8.646;2023-12-22T03:27:58;3.80;;;2.60;;
10641;SDS011;5369;49.586;8.646;2023-12-22T03:30:24;3.63;;;2.07;;
10641;SDS011;5369;49.586;8.646;2023-12-22T03:32:50;2.80;;;2.23;;
10641;SDS011;5369;49.586;8.646;2023-12-22T03:35:16;3.80;;;2.20;;
10641;SDS011;5369;49.586;8.646;2023-12-22T03:37:43;3.23;;;2.17;;
10641;SDS011;5369;49.586;8.646;2023-12-22T03:40:09;3.13;;;2.40;;
10641;SDS011;5369;49.586;8.646;2023-12-22T03:42:35;4.07;;;2.73;;
10641;SDS011;5369;49.586;8.646;2023-12-22T03:45:01;4.90;;;2.80;;
10641;SDS011;5369;49.586;8.646;2023-12-22T03:47:27;4.87;;;2.27;;
10641;SDS011;5369;49.586;8.646;2023-12-22T03:49:53;3.63;;;2.30;;
10641;SDS011;5369;49.586;8.646;2023-12-22T03:52:19;4.67;;;2.50;;
10641;SDS011;5369;49.586;8.646;2023-12-22T03:54:45;3.23;;;2.20;;
10641;SDS011;5369;49.586;8.646;2023-12-22T03:57:12;3.27;;;2.13;;
10641;SDS011;5369;49.586;8.646;2023-12-22T03:59:38;4.43;;;2.03;;
10641;SDS011;5369;49.586;8.646;2023-12-22T04:02:04;3.20;;;1.77;;
10641;SDS011;5369;49.586;8.646;2023-12-22T04:04:30;2.20;;;1.70;;
10641;SDS011;5369;49.586;8.646;2023-12-22T04:06:56;2.73;;;1.80;;
10641;SDS011;5369;49.586;8.646;2023-12-22T04:09:23;4.03;;;1.83;;
10641;SDS011;5369;49.586;8.646;2023-12-22T04:11:49;5.03;;;2.17;;
10641;SDS011;5369;49.586;8.646;2023-12-22T04:14:15;4.93;;;2.00;;
10641;SDS011;5369;49.586;8.646;2023-12-22T04:16:43;5.77;;;1.77;;
10641;SDS011;5369;49.586;8.646;2023-12-22T04:19:09;5.47;;;1.73;;
10641;SDS011;5369;49.586;8.646;2023-12-22T04:21:35;4.53;;;1.30;;
10641;SDS011;5369;49.586;8.646;2023-12-22T04:24:01;4.43;;;1.20;;
10641;SDS011;5369;49.586;8.646;2023-12-22T04:26:27;2.77;;;1.20;;
10641;SDS011;5369;49.586;8.646;2023-12-22T04:28:54;4.73;;;1.17;;
10641;SDS011;5369;49.586;8.646;2023-12-22T04:31:20;3.93;;;1.30;;
10641;SDS011;5369;49.586;8.646;2023-12-22T04:33:46;2.27;;;1.10;;
10641;SDS011;5369;49.586;8.646;2023-12-22T04:36:12;4.43;;;1.30;;
10641;SDS011;5369;49.586;8.646;2023-12-22T04:38:38;2.70;;;1.23;;
10641;SDS011;5369;49.586;8.646;2023-12-22T04:41:06;3.90;;;1.00;;
10641;SDS011;5369;49.586;8.646;2023-12-22T04:43:32;3.97;;;1.20;;
10641;SDS011;5369;49.586;8.646;2023-12-22T04:45:58;3.47;;;1.10;;
10641;SDS011;5369;49.586;8.646;2023-12-22T04:48:24;2.50;;;0.90;;
10641;SDS011;5369;49.586;8.646;2023-12-22T04:50:50;3.63;;;1.30;;
10641;SDS011;5369;49.586;8.646;2023-12-22T04:53:16;2.00;;;0.97;;
10641;SDS011;5369;49.586;8.646;2023-12-22T04:55:43;3.30;;;1.10;;
10641;SDS011;5369;49.586;8.646;2023-12-22T04:58:09;1.97;;;1.17;;
10641;SDS011;5369;49.586;8.646;2023-12-22T05:00:35;3.57;;;1.60;;
10641;SDS011;5369;49.586;8.646;2023-12-22T05:03:01;4.53;;;2.30;;
10641;SDS011;5369;49.586;8.646;2023-12-22T05:05:28;3.17;;;2.00;;
10641;SDS011;5369;49.586;8.646;2023-12-22T05:07:54;4.93;;;1.50;;
10641;SDS011;5369;49.586;8.646;2023-12-22T05:10:20;3.80;;;1.47;;
10641;SDS011;5369;49.586;8.646;2023-12-22T05:12:46;4.47;;;1.33;;
10641;SDS011;5369;49.586;8.646;2023-12-22T05:15:13;4.17;;;1.40;;
10641;SDS011;5369;49.586;8.646;2023-12-22T05:17:39;2.47;;;1.20;;
10641;SDS011;5369;49.586;8.646;2023-12-22T05:20:06;3.20;;;1.30;;
10641;SDS011;5369;49.586;8.646;2023-12-22T05:22:32;5.27;;;1.30;;
10641;SDS011;5369;49.586;8.646;2023-12-22T05:24:58;4.60;;;1.30;;
10641;SDS011;5369;49.586;8.646;2023-12-22T05:27:26;2.77;;;1.30;;
10641;SDS011;5369;49.586;8.646;2023-12-22T05:29:52;4.63;;;1.27;;
10641;SDS011;5369;49.586;8.646;2023-12-22T05:32:18;3.10;;;1.07;;
10641;SDS011;5369;49.586;8.646;2023-12-22T05:34:44;4.80;;;1.27;;
10641;SDS011;5369;49.586;8.646;2023-12-22T05:37:10;5.47;;;1.30;;
10641;SDS011;5369;49.586;8.646;2023-12-22T05:39:37;5.87;;;1.30;;
10641;SDS011;5369;49.586;8.646;2023-12-22T05:42:03;2.90;;;1.00;;
10641;SDS011;5369;49.586;8.646;2023-12-22T05:44:29;4.60;;;1.30;;
10641;SDS011;5369;49.586;8.646;2023-12-22T05:46:58;7.53;;;1.30;;
10641;SDS011;5369;49.586;8.646;2023-12-22T05:49:24;2.90;;;1.27;;
10641;SDS011;5369;49.586;8.646;2023-12-22T05:51:51;2.13;;;1.07;;
10641;SDS011;5369;49.586;8.646;2023-12-22T05:54:17;3.07;;;1.20;;
10641;SDS011;5369;49.586;8.646;2023-12-22T05:56:44;6.43;;;1.57;;
10641;SDS011;5369;49.586;8.646;2023-12-22T05:59:11;4.93;;;1.20;;
10641;SDS011;5369;49.586;8.646;2023-12-22T06:01:37;3.97;;;1.30;;
10641;SDS011;5369;49.586;8.646;2023-12-22T06:04:03;4.07;;;1.43;;
10641;SDS011;5369;49.586;8.646;2023-12-22T06:06:29;5.27;;;1.33;;
10641;SDS011;5369;49.586;8.646;2023-12-22T06:08:55;3.87;;;1.63;;
10641;SDS011;5369;49.586;8.646;2023-12-22T06:11:22;7.10;;;1.53;;
10641;SDS011;5369;49.586;8.646;2023-12-22T06:13:48;3.63;;;1.50;;
10641;SDS011;5369;49.586;8.646;2023-12-22T06:16:14;2.87;;;1.70;;
10641;SDS011;5369;49.586;8.646;2023-12-22T06:18:41;4.67;;;1.93;;
10641;SDS011;5369;49.586;8.646;2023-12-22T06:21:08;4.47;;;1.47;;
10641;SDS011;5369;49.586;8.646;2023-12-22T06:23:34;3.63;;;1.90;;
10641;SDS011;5369;49.586;8.646;2023-12-22T06:26:01;3.17;;;2.10;;
10641;SDS011;5369;49.586;8.646;2023-12-22T06:28:27;5.03;;;1.80;;
10641;SDS011;5369;49.586;8.646;2023-12-22T06:30:54;4.27;;;1.80;;
10641;SDS011;5369;49.586;8.646;2023-12-22T06:33:20;5.33;;;1.93;;
10641;SDS011;5369;49.586;8.646;2023-12-22T06:35:46;6.00;;;2.10;;
10641;SDS011;5369;49.586;8.646;2023-12-22T06:38:13;6.33;;;3.03;;
10641;SDS011;5369;49.586;8.646;2023-12-22T06:40:39;9.67;;;3.07;;
10641;SDS011;5369;49.586;8.646;2023-12-22T06:43:05;6.67;;;2.17;;
10641;SDS011;5369;49.586;8.646;2023-12-22T06:45:31;6.50;;;2.20;;
10641;SDS011;5369;49.586;8.646;2023-12-22T06:47:57;7.60;;;2.30;;
10641;SDS011;5369;49.586;8.646;2023-12-22T06:50:23;6.13;;;2.10;;
10641;SDS011;5369;49.586;8.646;2023-12-22T06:52:50;6.37;;;2.53;;
10641;SDS011;5369;49.586;8.646;2023-12-22T06:55:16;7.67;;;2.90;;
10641;SDS011;5369;49.586;8.646;2023-12-22T06:57:42;9.37;;;3.10;;
10641;SDS011;5369;49.586;8.646;2023-12-22T07:00:08;7.13;;;2.30;;
10641;SDS011;5369;49.586;8.646;2023-12-22T07:02:35;5.27;;;1.93;;
10641;SDS011;5369;49.586;8.646;2023-12-22T07:07:31;5.73;;;1.90;;
10641;SDS011;5369;49.586;8.646;2023-12-22T07:09:57;8.43;;;2.20;;
10641;SDS011;5369;49.586;8.646;2023-12-22T07:12:23;8.10;;;2.17;;
10641;SDS011;5369;49.586;8.646;2023-12-22T07:14:50;6.97;;;1.87;;
10641;SDS011;5369;49.586;8.646;2023-12-22T07:17:16;7.87;;;2.00;;
10641;SDS011;5369;49.586;8.646;2023-12-22T07:19:42;6.97;;;2.20;;
10641;SDS011;5369;49.586;8.646;2023-12-22T07:22:08;7.33;;;1.80;;
10641;SDS011;5369;49.586;8.646;2023-12-22T07:24:34;5.47;;;1.70;;
10641;SDS011;5369;49.586;8.646;2023-12-22T07:27:00;4.70;;;1.60;;
10641;SDS011;5369;49.586;8.646;2023-12-22T07:29:26;4.83;;;1.73;;
10641;SDS011;5369;49.586;8.646;2023-12-22T07:31:52;9.63;;;1.93;;
10641;SDS011;5369;49.586;8.646;2023-12-22T07:34:18;6.93;;;1.90;;
10641;SDS011;5369;49.586;8.646;2023-12-22T07:36:47;5.37;;;1.80;;
10641;SDS011;5369;49.586;8.646;2023-12-22T07:39:13;4.80;;;1.80;;
10641;SDS011;5369;49.586;8.646;2023-12-22T07:41:40;7.90;;;1.87;;
10641;SDS011;5369;49.586;8.646;2023-12-22T07:44:06;5.13;;;1.53;;
10641;SDS011;5369;49.586;8.646;2023-12-22T07:46:32;4.43;;;1.83;;
10641;SDS011;5369;49.586;8.646;2023-12-22T07:48:58;5.97;;;1.70;;
10641;SDS011;5369;49.586;8.646;2023-12-22T07:51:24;5.33;;;1.47;;
10641;SDS011;5369;49.586;8.646;2023-12-22T07:53:51;5.63;;;1.70;;
10641;SDS011;5369;49.586;8.646;2023-12-22T07:56:17;4.07;;;1.67;;
10641;SDS011;5369;49.586;8.646;2023-12-22T07:58:43;4.40;;;1.47;;
10641;SDS011;5369;49.586;8.646;2023-12-22T08:01:09;4.77;;;1.60;;
10641;SDS011;5369;49.586;8.646;2023-12-22T08:03:36;5.47;;;1.53;;
10641;SDS011;5369;49.586;8.646;2023-12-22T08:06:02;3.80;;;1.27;;
10641;SDS011;5369;49.586;8.646;2023-12-22T08:08:28;4.57;;;1.30;;
10641;SDS011;5369;49.586;8.646;2023-12-22T08:10:55;5.73;;;1.47;;
10641;SDS011;5369;49.586;8.646;2023-12-22T08:13:21;3.50;;;1.30;;
10641;SDS011;5369;49.586;8.646;2023-12-22T08:15:47;3.30;;;1.10;;
10641;SDS011;5369;49.586;8.646;2023-12-22T08:18:13;5.27;;;1.43;;
10641;SDS011;5369;49.586;8.646;2023-12-22T08:20:39;3.10;;;1.10;;
10641;SDS011;5369;49.586;8.646;2023-12-22T08:23:06;3.10;;;1.27;;
10641;SDS011;5369;49.586;8.646;2023-12-22T08:25:32;3.27;;;1.13;;
10641;SDS011;5369;49.586;8.646;2023-12-22T08:27:58;3.63;;;1.20;;
10641;SDS011;5369;49.586;8.646;2023-12-22T08:30:24;2.63;;;1.00;;
10641;SDS011;5369;49.586;8.646;2023-12-22T08:32:50;3.53;;;1.00;;
10641;SDS011;5369;49.586;8.646;2023-12-22T08:35:16;2.43;;;0.90;;
10641;SDS011;5369;49.586;8.646;2023-12-22T08:37:43;1.40;;;0.80;;
10641;SDS011;5369;49.586;8.646;2023-12-22T08:40:09;1.80;;;0.80;;
10641;SDS011;5369;49.586;8.646;2023-12-22T08:42:35;2.90;;;1.10;;
10641;SDS011;5369;49.586;8.646;2023-12-22T08:45:01;2.37;;;1.00;;
10641;SDS011;5369;49.586;8.646;2023-12-22T08:47:27;1.67;;;0.80;;
10641;SDS011;5369;49.586;8.646;2023-12-22T08:49:54;1.73;;;0.80;;
10641;SDS011;5369;49.586;8.646;2023-12-22T08:52:20;2.50;;;1.10;;
10641;SDS011;5369;49.586;8.646;2023-12-22T08:54:46;2.60;;;0.90;;
10641;SDS011;5369;49.586;8.646;2023-12-22T08:57:12;3.90;;;1.00;;
10641;SDS011;5369;49.586;8.646;2023-12-22T08:59:38;2.20;;;1.10;;
10641;SDS011;5369;49.586;8.646;2023-12-22T09:02:04;3.67;;;1.23;;
10641;SDS011;5369;49.586;8.646;2023-12-22T09:04:31;3.60;;;1.27;;
10641;SDS011;5369;49.586;8.646;2023-12-22T09:06:57;4.20;;;1.30;;
10641;SDS011;5369;49.586;8.646;2023-12-22T09:09:23;4.33;;;1.40;;
10641;SDS011;5369;49.586;8.646;2023-12-22T09:11:50;5.27;;;1.47;;
10641;SDS011;5369;49.586;8.646;2023-12-22T09:14:16;4.07;;;1.30;;
10641;SDS011;5369;49.586;8.646;2023-12-22T09:16:43;5.53;;;1.80;;
10641;SDS011;5369;49.586;8.646;2023-12-22T09:19:10;4.57;;;1.50;;
10641;SDS011;5369;49.586;8.646;2023-12-22T09:21:36;4.70;;;1.80;;
10641;SDS011;5369;49.586;8.646;2023-12-22T09:24:03;9.87;;;1.93;;
10641;SDS011;5369;49.586;8.646;2023-12-22T09:26:30;8.97;;;1.90;;
10641;SDS011;5369;49.586;8.646;2023-12-22T09:28:57;6.27;;;1.73;;
10641;SDS011;5369;49.586;8.646;2023-12-22T09:31:23;7.00;;;1.83;;
10641;SDS011;5369;49.586;8.646;2023-12-22T09:33:49;6.90;;;2.00;;
10641;SDS011;5369;49.586;8.646;2023-12-22T09:36:16;6.20;;;2.07;;
10641;SDS011;5369;49.586;8.646;2023-12-22T09:38:43;8.17;;;2.43;;
10641;SDS011;5369;49.586;8.646;2023-12-22T09:41:09;8.23;;;2.20;;
10641;SDS011;5369;49.586;8.646;2023-12-22T09:43:36;6.37;;;2.03;;
10641;SDS011;5369;49.586;8.646;2023-12-22T09:46:02;9.50;;;2.40;;
10641;SDS011;5369;49.586;8.646;2023-12-22T09:48:29;8.43;;;2.70;;
10641;SDS011;5369;49.586;8.646;2023-12-22T09:50:56;11.73;;;2.57;;
10641;SDS011;5369;49.586;8.646;2023-12-22T09:53:23;10.07;;;2.70;;
10641;SDS011;5369;49.586;8.646;2023-12-22T09:55:50;9.17;;;3.27;;
10641;SDS011;5369;49.586;8.646;2023-12-22T09:58:16;9.27;;;2.90;;
10641;SDS011;5369;49.586;8.646;2023-12-22T10:00:43;7.10;;;2.80;;
10641;SDS011;5369;49.586;8.646;2023-12-22T10:03:10;14.23;;;3.90;;
10641;SDS011;5369;49.586;8.646;2023-12-22T10:05:37;11.30;;;3.43;;
10641;SDS011;5369;49.586;8.646;2023-12-22T10:08:04;8.70;;;3.10;;
10641;SDS011;5369;49.586;8.646;2023-12-22T10:10:31;13.97;;;3.47;;
10641;SDS011;5369;49.586;8.646;2023-12-22T10:12:58;13.97;;;3.20;;
10641;SDS011;5369;49.586;8.646;2023-12-22T10:15:25;16.03;;;3.90;;
10641;SDS011;5369;49.586;8.646;2023-12-22T10:17:51;13.40;;;3.43;;
10641;SDS011;5369;49.586;8.646;2023-12-22T10:20:18;12.30;;;3.10;;
10641;SDS011;5369;49.586;8.646;2023-12-22T10:22:44;13.53;;;3.27;;
10641;SDS011;5369;49.586;8.646;2023-12-22T10:25:13;12.00;;;3.30;;
10641;SDS011;5369;49.586;8.646;2023-12-22T10:27:41;14.47;;;3.37;;
10641;SDS011;5369;49.586;8.646;2023-12-22T10:30:08;14.37;;;3.80;;
10641;SDS011;5369;49.586;8.646;2023-12-22T10:32:39;27.77;;;3.93;;
10641;SDS011;5369;49.586;8.646;2023-12-22T10:35:07;12.47;;;4.00;;
10641;SDS011;5369;49.586;8.646;2023-12-22T10:37:33;15.53;;;4.07;;
10641;SDS011;5369;49.586;8.646;2023-12-22T10:40:00;15.50;;;3.50;;
10641;SDS011;5369;49.586;8.646;2023-12-22T10:42:26;14.17;;;3.13;;
10641;SDS011;5369;49.586;8.646;2023-12-22T10:44:53;18.63;;;3.70;;
10641;SDS011;5369;49.586;8.646;2023-12-22T10:47:20;15.73;;;4.17;;
10641;SDS011;5369;49.586;8.646;2023-12-22T10:49:47;14.17;;;3.13;;
10641;SDS011;5369;49.586;8.646;2023-12-22T10:52:15;13.87;;;3.40;;
10641;SDS011;5369;49.586;8.646;2023-12-22T10:54:42;12.90;;;3.50;;
10641;SDS011;5369;49.586;8.646;2023-12-22T10:57:09;12.13;;;3.33;;
10641;SDS011;5369;49.586;8.646;2023-12-22T10:59:35;17.50;;;3.00;;
10641;SDS011;5369;49.586;8.646;2023-12-22T11:02:04;14.70;;;4.17;;
10641;SDS011;5369;49.586;8.646;2023-12-22T11:04:32;17.20;;;4.07;;
10641;SDS011;5369;49.586;8.646;2023-12-22T11:07:02;14.10;;;3.50;;
10641;SDS011;5369;49.586;8.646;2023-12-22T11:09:31;14.43;;;3.73;;
10641;SDS011;5369;49.586;8.646;2023-12-22T11:11:58;15.07;;;3.63;;
10641;SDS011;5369;49.586;8.646;2023-12-22T11:14:24;16.90;;;3.67;;
10641;SDS011;5369;49.586;8.646;2023-12-22T11:16:51;15.43;;;3.50;;
10641;SDS011;5369;49.586;8.646;2023-12-22T11:19:18;14.97;;;4.03;;
10641;SDS011;5369;49.586;8.646;2023-12-22T11:21:44;13.07;;;3.63;;
10641;SDS011;5369;49.586;8.646;2023-12-22T11:24:11;14.97;;;3.40;;
10641;SDS011;5369;49.586;8.646;2023-12-22T11:26:41;13.40;;;4.03;;
10641;SDS011;5369;49.586;8.646;2023-12-22T11:29:08;13.13;;;3.47;;
10641;SDS011;5369;49.586;8.646;2023-12-22T11:31:35;11.40;;;3.27;;
10641;SDS011;5369;49.586;8.646;2023-12-22T11:34:02;11.97;;;3.57;;
10641;SDS011;5369;49.586;8.646;2023-12-22T11:36:28;10.90;;;3.13;;
10641;SDS011;5369;49.586;8.646;2023-12-22T11:38:55;12.47;;;3.10;;
10641;SDS011;5369;49.586;8.646;2023-12-22T11:41:23;12.03;;;3.20;;
10641;SDS011;5369;49.586;8.646;2023-12-22T11:43:50;11.03;;;3.33;;
10641;SDS011;5369;49.586;8.646;2023-12-22T11:46:17;11.00;;;3.57;;
10641;SDS011;5369;49.586;8.646;2023-12-22T11:48:47;11.10;;;2.80;;
10641;SDS011;5369;49.586;8.646;2023-12-22T11:51:14;12.20;;;3.07;;
10641;SDS011;5369;49.586;8.646;2023-12-22T11:53:40;12.50;;;2.70;;
10641;SDS011;5369;49.586;8.646;2023-12-22T11:56:07;11.23;;;3.50;;
10641;SDS011;5369;49.586;8.646;2023-12-22T11:58:35;14.53;;;3.67;;
10641;SDS011;5369;49.586;8.646;2023-12-22T12:01:02;8.87;;;2.70;;
10641;SDS011;5369;49.586;8.646;2023-12-22T12:03:31;11.43;;;3.20;;
10641;SDS011;5369;49.586;8.646;2023-12-22T12:06:43;8.43;;;3.00;;
10641;SDS011;5369;49.586;8.646;2023-12-22T12:08:44;12.10;;;3.07;;
10641;SDS011;5369;49.586;8.646;2023-12-22T12:11:10;13.80;;;3.47;;
10641;SDS011;5369;49.586;8.646;2023-12-22T12:13:41;12.23;;;3.77;;
10641;SDS011;5369;49.586;8.646;2023-12-22T12:16:08;8.33;;;3.27;;
10641;SDS011;5369;49.586;8.646;2023-12-22T12:18:34;12.83;;;3.33;;
10641;SDS011;5369;49.586;8.646;2023-12-22T12:21:00;9.17;;;3.30;;
10641;SDS011;5369;49.586;8.646;2023-12-22T12:23:27;8.10;;;2.60;;
10641;SDS011;5369;49.586;8.646;2023-12-22T12:25:54;4.40;;;2.00;;
10641;SDS011;5369;49.586;8.646;2023-12-22T12:28:40;9.87;;;2.20;;
10641;SDS011;5369;49.586;8.646;2023-12-22T12:31:10;10.27;;;2.17;;
10641;SDS011;5369;49.586;8.646;2023-12-22T12:33:37;3.97;;;1.67;;
10641;SDS011;5369;49.586;8.646;2023-12-22T12:36:03;4.13;;;2.07;;
10641;SDS011;5369;49.586;8.646;2023-12-22T12:40:59;3.73;;;1.80;;
10641;SDS011;5369;49.586;8.646;2023-12-22T12:43:25;4.53;;;1.90;;
10641;SDS011;5369;49.586;8.646;2023-12-22T12:45:52;3.50;;;1.70;;
10641;SDS011;5369;49.586;8.646;2023-12-22T12:48:18;3.33;;;1.70;;
10641;SDS011;5369;49.586;8.646;2023-12-22T12:50:47;4.07;;;1.70;;
10641;SDS011;5369;49.586;8.646;2023-12-22T12:53:13;2.93;;;1.30;;
10641;SDS011;5369;49.586;8.646;2023-12-22T12:55:39;3.87;;;1.60;;
10641;SDS011;5369;49.586;8.646;2023-12-22T12:58:05;3.07;;;1.40;;
10641;SDS011;5369;49.586;8.646;2023-12-22T13:00:32;4.03;;;1.60;;
10641;SDS011;5369;49.586;8.646;2023-12-22T13:03:02;2.37;;;1.23;;
10641;SDS011;5369;49.586;8.646;2023-12-22T13:05:28;3.10;;;1.27;;
10641;SDS011;5369;49.586;8.646;2023-12-22T13:08:06;1.93;;;1.27;;
10641;SDS011;5369;49.586;8.646;2023-12-22T13:10:33;3.10;;;1.30;;
10641;SDS011;5369;49.586;8.646;2023-12-22T13:12:59;4.87;;;2.40;;
10641;SDS011;5369;49.586;8.646;2023-12-22T13:15:25;3.77;;;1.93;;
10641;SDS011;5369;49.586;8.646;2023-12-22T13:17:51;1.40;;;1.30;;
10641;SDS011;5369;49.586;8.646;2023-12-22T13:20:19;3.93;;;1.50;;
10641;SDS011;5369;49.586;8.646;2023-12-22T13:22:45;2.63;;;1.60;;
10641;SDS011;5369;49.586;8.646;2023-12-22T13:25:11;2.87;;;1.70;;
10641;SDS011;5369;49.586;8.646;2023-12-22T13:27:47;2.57;;;1.20;;
10641;SDS011;5369;49.586;8.646;2023-12-22T13:30:14;1.87;;;1.00;;
10641;SDS011;5369;49.586;8.646;2023-12-22T13:32:40;1.70;;;1.20;;
10641;SDS011;5369;49.586;8.646;2023-12-22T13:35:06;1.47;;;1.10;;
10641;SDS011;5369;49.586;8.646;2023-12-22T13:37:33;1.87;;;1.20;;
10641;SDS011;5369;49.586;8.646;2023-12-22T13:39:59;1.10;;;0.80;;
10641;SDS011;5369;49.586;8.646;2023-12-22T13:42:26;1.53;;;0.80;;
10641;SDS011;5369;49.586;8.646;2023-12-22T13:44:52;1.67;;;0.90;;
10641;SDS011;5369;49.586;8.646;2023-12-22T13:47:19;2.97;;;1.10;;
10641;SDS011;5369;49.586;8.646;2023-12-22T13:49:45;4.50;;;1.40;;
10641;SDS011;5369;49.586;8.646;2023-12-22T13:52:24;2.30;;;1.20;;
10641;SDS011;5369;49.586;8.646;2023-12-22T13:54:52;2.53;;;1.00;;
10641;SDS011;5369;49.586;8.646;2023-12-22T13:57:21;1.67;;;0.90;;
10641;SDS011;5369;49.586;8.646;2023-12-22T13:59:47;1.10;;;0.90;;
10641;SDS011;5369;49.586;8.646;2023-12-22T14:02:13;1.63;;;1.00;;
10641;SDS011;5369;49.586;8.646;2023-12-22T14:04:39;1.40;;;1.03;;
10641;SDS011;5369;49.586;8.646;2023-12-22T14:07:06;1.07;;;0.97;;
10641;SDS011;5369;49.586;8.646;2023-12-22T14:09:32;1.80;;;1.33;;
10641;SDS011;5369;49.586;8.646;2023-12-22T14:11:59;2.97;;;1.07;;
10641;SDS011;5369;49.586;8.646;2023-12-22T14:14:25;2.07;;;1.30;;
10641;SDS011;5369;49.586;8.646;2023-12-22T14:16:51;3.63;;;0.90;;
10641;SDS011;5369;49.586;8.646;2023-12-22T14:19:18;2.93;;;1.50;;
10641;SDS011;5369;49.586;8.646;2023-12-22T14:21:44;1.37;;;0.93;;
10641;SDS011;5369;49.586;8.646;2023-12-22T14:24:10;1.40;;;0.90;;
10641;SDS011;5369;49.586;8.646;2023-12-22T14:26:52;1.10;;;1.00;;
10641;SDS011;5369;49.586;8.646;2023-12-22T14:29:18;1.10;;;0.90;;
10641;SDS011;5369;49.586;8.646;2023-12-22T14:31:45;1.20;;;0.90;;
10641;SDS011;5369;49.586;8.646;2023-12-22T14:34:14;1.53;;;0.90;;
10641;SDS011;5369;49.586;8.646;2023-12-22T14:36:40;1.73;;;1.00;;
10641;SDS011;5369;49.586;8.646;2023-12-22T14:39:06;0.77;;;0.77;;
10641;SDS011;5369;49.586;8.646;2023-12-22T14:41:35;0.87;;;0.80;;
10641;SDS011;5369;49.586;8.646;2023-12-22T14:44:01;1.50;;;0.93;;
10641;SDS011;5369;49.586;8.646;2023-12-22T14:46:28;2.57;;;0.90;;
10641;SDS011;5369;49.586;8.646;2023-12-22T14:48:54;1.70;;;0.90;;
10641;SDS011;5369;49.586;8.646;2023-12-22T14:51:20;1.07;;;0.77;;
10641;SDS011;5369;49.586;8.646;2023-12-22T14:53:46;1.17;;;0.70;;
10641;SDS011;5369;49.586;8.646;2023-12-22T14:56:13;1.20;;;0.70;;
10641;SDS011;5369;49.586;8.646;2023-12-22T14:58:39;1.03;;;0.60;;
10641;SDS011;5369;49.586;8.646;2023-12-22T15:01:05;1.27;;;0.70;;